Time;durP1;ratioP1;P1;durP2;ratioP2;P2;SDS_P1;SDS_P2;PMS_P1;PMS_P2;Temp;Humidity;BMP_temperature;BMP_pressure;BME280_temperature;BME280_humidity;BME280_pressure;Samples;Min_cycle;Max_cycle;Signal;HPM_P1;HPM_P2
2022/08/24 00:07:58;;;;;;;6.70;6.13;;;;;19.30;99007.00;;;;16591496;28;20222;-52
2022/08/24 00:16:02;;;;;;;5.60;5.20;;;;;19.70;99011.00;;;;16590860;28;20318;-51
2022/08/24 00:24:06;;;;;;;7.77;6.50;;;;;19.50;98998.00;;;;16591148;28;20213;-52
2022/08/24 00:32:09;;;;;;;5.83;5.40;;;;;19.40;99013.00;;;;16588630;28;20235;-51
2022/08/24 00:40:14;;;;;;;6.40;5.80;;;;;19.70;99007.00;;;;16588500;28;20294;-53
2022/08/24 00:48:21;;;;;;;6.50;6.00;;;;;19.40;99008.00;;;;16586596;28;20263;-53
2022/08/24 00:56:28;;;;;;;6.37;5.70;;;;;19.00;99008.00;;;;16602370;28;20735;-52
2022/08/24 01:04:38;;;;;;;6.23;5.80;;;;;18.90;99003.00;;;;16586924;28;20215;-52
2022/08/24 01:12:44;;;;;;;6.53;6.03;;;;;18.80;99011.00;;;;16602697;28;20712;-52
2022/08/24 01:20:55;;;;;;;7.17;6.30;;;;;18.60;99018.00;;;;16592940;28;20200;-52
2022/08/24 01:29:04;;;;;;;7.33;6.60;;;;;18.70;99026.00;;;;16607491;28;20254;-51
2022/08/24 01:37:10;;;;;;;6.67;6.13;;;;;18.50;99022.00;;;;16609281;28;20627;-52
2022/08/24 01:45:14;;;;;;;6.87;6.27;;;;;18.20;99031.00;;;;16609454;28;20269;-52
2022/08/24 01:53:18;;;;;;;8.20;7.50;;;;;18.60;99032.00;;;;16621791;28;20714;-53
2022/08/24 02:01:22;;;;;;;7.00;6.50;;;;;19.10;99029.00;;;;16606830;28;20196;-52
2022/08/24 02:09:25;;;;;;;6.73;6.13;;;;;19.10;99031.00;;;;16606729;28;20226;-52
2022/08/24 02:17:29;;;;;;;6.80;6.30;;;;;18.60;99034.00;;;;16607693;28;20222;-53
2022/08/24 02:25:32;;;;;;;6.47;6.00;;;;;18.40;99040.00;;;;16623014;28;20218;-53
2022/08/24 02:33:37;;;;;;;8.00;7.40;;;;;19.00;99039.00;;;;16616588;28;20235;-52
2022/08/24 02:41:41;;;;;;;7.27;6.67;;;;;18.80;99037.00;;;;16609277;28;20195;-53
2022/08/24 02:49:45;;;;;;;7.83;7.07;;;;;17.80;99035.00;;;;16611070;28;20230;-52
2022/08/24 02:57:49;;;;;;;9.00;8.20;;;;;17.90;99030.00;;;;16594092;28;20233;-52
2022/08/24 03:05:53;;;;;;;8.20;7.60;;;;;18.70;99035.00;;;;16594309;28;20291;-52
2022/08/24 03:13:57;;;;;;;8.47;7.77;;;;;17.90;99034.00;;;;16609379;28;20230;-52
2022/08/24 03:22:02;;;;;;;8.23;7.53;;;;;17.90;99043.00;;;;16609510;28;20199;-52
2022/08/24 03:30:06;;;;;;;8.60;7.80;;;;;18.60;99037.00;;;;16608438;28;20225;-53
2022/08/24 03:38:12;;;;;;;8.53;7.77;;;;;18.10;99029.00;;;;16608188;28;20309;-52
2022/08/24 03:46:17;;;;;;;8.53;7.90;;;;;17.90;99032.00;;;;16606747;28;20238;-50
2022/08/24 03:54:21;;;;;;;8.20;7.60;;;;;18.10;99032.00;;;;16603052;28;20736;-50
2022/08/24 04:02:24;;;;;;;8.33;7.67;;;;;17.70;99049.00;;;;16588653;28;20199;-50
2022/08/24 04:10:28;;;;;;;9.73;8.93;;;;;18.40;99027.00;;;;16588248;28;20226;-51
2022/08/24 04:18:31;;;;;;;9.20;8.40;;;;;18.50;99037.00;;;;16602678;28;20280;-51
2022/08/24 04:26:36;;;;;;;10.33;9.40;;;;;19.00;99037.00;;;;16587774;28;20217;-49
2022/08/24 04:34:39;;;;;;;11.07;10.07;;;;;18.90;99047.00;;;;16586899;28;20276;-50
2022/08/24 04:42:43;;;;;;;8.80;8.10;;;;;19.00;99041.00;;;;16565222;28;1050137;-51
2022/08/24 04:50:46;;;;;;;9.20;8.60;;;;;19.10;99052.00;;;;16588766;28;20861;-49
2022/08/24 04:58:51;;;;;;;9.20;8.43;;;;;19.00;99065.00;;;;16585876;28;20306;-50
2022/08/24 05:06:54;;;;;;;8.67;8.07;;;;;19.10;99067.00;;;;16603036;28;20235;-50
2022/08/24 05:14:58;;;;;;;9.60;8.67;;;;;19.30;99066.00;;;;16602857;28;20230;-50
2022/08/24 05:23:01;;;;;;;9.57;8.80;;;;;19.40;99065.00;;;;16585325;28;20723;-49
2022/08/24 05:31:10;;;;;;;9.90;9.10;;;;;19.50;99067.00;;;;16602975;28;20230;-51
2022/08/24 05:39:14;;;;;;;9.70;8.83;;;;;19.60;99058.00;;;;16585568;28;20573;-50
2022/08/24 05:47:22;;;;;;;13.63;9.70;;;;;19.80;99062.00;;;;16585277;28;20236;-51
2022/08/24 05:55:24;;;;;;;10.00;9.30;;;;;19.80;99072.00;;;;16601437;28;20722;-50
2022/08/24 06:03:28;;;;;;;11.90;10.90;;;;;20.40;99073.00;;;;16584876;28;20223;-50
2022/08/24 06:11:36;;;;;;;10.70;9.77;;;;;20.70;99084.00;;;;16610032;28;20277;-50
2022/08/24 06:19:42;;;;;;;9.83;8.83;;;;;20.60;99083.00;;;;16612930;28;20657;-49
2022/08/24 06:27:45;;;;;;;9.73;8.60;;;;;20.70;99080.00;;;;16596056;28;20238;-50
2022/08/24 06:35:50;;;;;;;9.23;8.37;;;;;21.10;99069.00;;;;16612222;28;20269;-50
2022/08/24 06:43:53;;;;;;;10.47;9.30;;;;;21.30;99076.00;;;;16595317;28;20742;-49
2022/08/24 06:52:02;;;;;;;8.30;7.50;;;;;21.70;99069.00;;;;16591184;28;20235;-50
2022/08/24 07:00:08;;;;;;;8.73;7.83;;;;;21.80;99075.00;;;;16594169;28;20219;-51
2022/08/24 07:08:13;;;;;;;10.43;8.37;;;;;22.20;99084.00;;;;16610367;28;20225;-51
2022/08/24 07:16:16;;;;;;;8.43;7.70;;;;;22.10;99091.00;;;;16594759;28;20418;-50
2022/08/24 07:24:23;;;;;;;6.97;6.30;;;;;23.10;99089.00;;;;16592842;28;20308;-50
2022/08/24 07:32:27;;;;;;;7.07;6.47;;;;;23.10;99100.00;;;;16593194;28;20589;-51
2022/08/24 07:40:32;;;;;;;6.67;5.97;;;;;23.70;99096.00;;;;16609141;28;20974;-51
2022/08/24 07:48:35;;;;;;;6.80;6.17;;;;;24.00;99090.00;;;;16608188;28;20798;-51
2022/08/24 07:56:40;;;;;;;7.83;6.17;;;;;24.40;99100.00;;;;16607133;28;20253;-51
2022/08/24 08:04:44;;;;;;;7.20;5.80;;;;;24.50;99102.00;;;;16590948;28;20219;-51
2022/08/24 08:12:48;;;;;;;6.33;4.43;;;;;25.20;99101.00;;;;16590562;28;20664;-51
2022/08/24 08:20:51;;;;;;;4.90;4.50;;;;;26.00;99087.00;;;;16591787;28;20202;-50
2022/08/24 08:28:56;;;;;;;4.53;4.10;;;;;26.60;99086.00;;;;16604368;28;20222;-51
2022/08/24 08:37:00;;;;;;;3.60;3.30;;;;;27.10;99073.00;;;;16588106;28;20313;-49
2022/08/24 08:45:19;;;;;;;3.90;3.17;;;;;27.50;99074.00;;;;16604002;28;20381;-54
2022/08/24 08:53:56;;;;;;;3.60;3.30;;;;;27.40;99063.00;;;;16602550;28;20227;-52
2022/08/24 09:02:09;;;;;;;7.13;4.90;;;;;28.10;99067.00;;;;16587610;28;20199;-50
2022/08/24 09:10:35;;;;;;;6.53;5.10;;;;;28.50;99058.00;;;;16585960;28;20223;-51
2022/08/24 09:18:50;;;;;;;5.00;4.50;;;;;28.50;99041.00;;;;16602656;28;20785;-50
2022/08/24 09:27:02;;;;;;;4.23;3.27;;;;;28.50;99053.00;;;;16603026;28;20365;-51
2022/08/24 09:35:13;;;;;;;4.13;3.50;;;;;28.70;99056.00;;;;16603011;28;20235;-49
2022/08/24 09:43:36;;;;;;;3.80;3.30;;;;;29.20;99054.00;;;;16620747;22;20223;-48
2022/08/24 09:52:08;;;;;;;2.90;2.70;;;;;29.80;99040.00;;;;16729439;28;20224;-49
2022/08/24 10:00:14;;;;;;;7.37;3.90;;;;;29.90;99036.00;;;;16788569;28;20205;-49
2022/08/24 10:08:27;;;;;;;4.20;2.80;;;;;31.30;99031.00;;;;16795776;28;20312;-49
2022/08/24 10:16:39;;;;;;;2.27;2.10;;;;;32.00;99029.00;;;;16795104;28;20324;-50
2022/08/24 10:24:55;;;;;;;2.70;2.17;;;;;32.10;99034.00;;;;16795308;28;20213;-49
2022/08/24 10:33:06;;;;;;;2.40;2.20;;;;;31.80;99011.00;;;;16793345;28;20225;-49
2022/08/24 10:41:48;;;;;;;2.20;2.10;;;;;32.80;99023.00;;;;16793324;28;20548;-50
2022/08/24 10:50:27;;;;;;;2.53;2.33;;;;;31.40;99005.00;;;;16792169;28;20624;-49
2022/08/24 10:58:44;;;;;;;2.40;2.20;;;;;33.10;99014.00;;;;16789622;28;20686;-49
2022/08/24 11:07:07;;;;;;;2.53;2.30;;;;;33.10;99011.00;;;;16791521;28;20216;-49
2022/08/24 11:15:22;;;;;;;3.00;2.00;;;;;32.80;99010.00;;;;16791078;28;20731;-49
2022/08/24 11:23:28;;;;;;;1.90;1.80;;;;;33.10;99006.00;;;;16790532;28;20222;-49
2022/08/24 11:31:34;;;;;;;2.90;1.60;;;;;34.70;98994.00;;;;16790084;28;20221;-49
2022/08/24 11:39:38;;;;;;;1.80;1.70;;;;;35.10;98992.00;;;;16789553;28;20274;-49
2022/08/24 11:47:56;;;;;;;3.00;1.80;;;;;34.30;98973.00;;;;16788960;28;20229;-50
2022/08/24 11:56:05;;;;;;;2.43;2.23;;;;;36.40;98989.00;;;;16787670;28;20294;-50
2022/08/24 12:04:16;;;;;;;1.80;1.70;;;;;35.20;98985.00;;;;16787400;28;20275;-50
2022/08/24 12:12:27;;;;;;;2.77;2.50;;;;;36.00;98986.00;;;;16787943;28;20228;-49
2022/08/24 12:20:33;;;;;;;2.03;1.90;;;;;35.10;98989.00;;;;16786426;28;20223;-50
2022/08/24 12:28:42;;;;;;;1.50;1.40;;;;;37.40;98989.00;;;;16784966;28;20290;-50
2022/08/24 12:36:54;;;;;;;2.10;2.00;;;;;36.10;98975.00;;;;16785025;28;20740;-50
2022/08/24 12:45:01;;;;;;;2.40;1.80;;;;;35.50;98978.00;;;;16783877;28;20214;-51
2022/08/24 12:53:27;;;;;;;2.20;2.00;;;;;36.00;98974.00;;;;16778370;28;20702;-50
2022/08/24 13:01:34;;;;;;;1.83;1.57;;;;;36.60;98978.00;;;;16783532;28;20201;-50
2022/08/24 13:09:39;;;;;;;2.00;1.70;;;;;36.20;98979.00;;;;16782878;28;20739;-49
2022/08/24 13:17:43;;;;;;;3.00;1.80;;;;;38.00;98975.00;;;;16782764;28;20236;-50
2022/08/24 13:25:55;;;;;;;2.20;2.00;;;;;37.40;98969.00;;;;16781734;28;20312;-50
2022/08/24 13:34:23;;;;;;;1.77;1.50;;;;;36.70;98968.00;;;;16782523;28;20237;-50
2022/08/24 13:42:50;;;;;;;2.13;1.93;;;;;37.80;98967.00;;;;16782539;28;20189;-50
2022/08/24 13:51:15;;;;;;;2.40;2.20;;;;;38.30;98964.00;;;;16782215;28;20624;-50
2022/08/24 13:59:33;;;;;;;3.10;1.90;;;;;38.80;98956.00;;;;16780068;28;20217;-50
2022/08/24 14:07:52;;;;;;;1.87;1.77;;;;;38.00;98959.00;;;;16781476;28;20248;-50
2022/08/24 14:24:26;;;;;;;3.20;1.70;;;;;38.40;98943.00;;;;16779104;28;20213;-50
2022/08/24 14:32:31;;;;;;;1.70;1.60;;;;;39.80;98951.00;;;;16790684;28;20573;-50
2022/08/24 14:40:41;;;;;;;2.53;2.33;;;;;38.50;98939.00;;;;16793307;28;20312;-50
2022/08/24 14:48:50;;;;;;;1.90;1.80;;;;;36.80;98935.00;;;;16791873;28;20220;-50
2022/08/24 14:57:08;;;;;;;2.43;2.00;;;;;38.40;98927.00;;;;16791754;28;20210;-50
2022/08/24 15:05:18;;;;;;;3.47;2.10;;;;;36.70;98919.00;;;;16790601;28;20300;-49
2022/08/24 15:13:28;;;;;;;2.60;1.90;;;;;36.90;98916.00;;;;16790822;28;20225;-50
2022/08/24 15:21:41;;;;;;;2.60;2.40;;;;;37.70;98914.00;;;;16791059;28;20197;-50
2022/08/24 15:29:51;;;;;;;2.30;2.10;;;;;39.40;98911.00;;;;16790367;28;20223;-50
2022/08/24 15:37:54;;;;;;;3.30;2.10;;;;;36.60;98914.00;;;;16789984;28;20225;-50
2022/08/24 15:45:58;;;;;;;2.20;2.00;;;;;37.30;98915.00;;;;16795628;23;20229;-50
2022/08/24 15:54:16;;;;;;;4.40;2.23;;;;;36.90;98913.00;;;;16720448;28;20230;-51
2022/08/24 16:02:27;;;;;;;2.80;2.60;;;;;36.30;98916.00;;;;16656186;28;20216;-52
2022/08/24 16:10:32;;;;;;;2.37;2.27;;;;;36.90;98914.00;;;;16685574;28;20658;-53
2022/08/24 16:18:48;;;;;;;2.20;2.00;;;;;37.50;98924.00;;;;16655772;28;20226;-53
2022/08/24 16:26:54;;;;;;;4.10;3.33;;;;;36.50;98917.00;;;;16654397;28;20329;-52
2022/08/24 16:35:16;;;;;;;3.50;3.07;;;;;36.00;98909.00;;;;16654405;28;20309;-49
2022/08/24 16:43:19;;;;;;;2.83;2.47;;;;;33.70;98908.00;;;;16650255;28;20198;-49
2022/08/24 16:51:24;;;;;;;6.23;4.23;;;;;34.20;98918.00;;;;16653378;28;20742;-50
2022/08/24 16:59:28;;;;;;;4.83;2.80;;;;;33.00;98919.00;;;;16653872;28;20221;-48
2022/08/24 17:07:32;;;;;;;3.63;2.30;;;;;33.80;98913.00;;;;16653492;28;20218;-50
2022/08/24 17:15:36;;;;;;;4.87;2.60;;;;;33.90;98917.00;;;;16653478;28;20302;-50
2022/08/24 17:23:41;;;;;;;3.03;2.83;;;;;33.90;98928.00;;;;16653225;28;20278;-49
2022/08/24 17:31:44;;;;;;;5.57;2.40;;;;;34.20;98932.00;;;;16652973;28;20215;-53
2022/08/24 17:39:51;;;;;;;2.90;2.70;;;;;33.30;98930.00;;;;16653053;28;20223;-52
2022/08/24 17:47:54;;;;;;;2.97;2.67;;;;;32.10;98947.00;;;;16652984;28;20313;-49
2022/08/24 17:55:57;;;;;;;4.40;3.07;;;;;31.80;98955.00;;;;16652137;28;20226;-47
2022/08/24 18:04:00;;;;;;;2.40;2.00;;;;;31.30;98957.00;;;;16655916;28;20223;-52
2022/08/24 18:12:04;;;;;;;3.70;3.40;;;;;31.30;98957.00;;;;16664711;28;20216;-51
2022/08/24 18:20:09;;;;;;;2.20;2.10;;;;;31.60;98962.00;;;;16665498;28;20313;-53
2022/08/24 18:28:13;;;;;;;3.73;3.30;;;;;31.40;98968.00;;;;16663790;28;20301;-52
2022/08/24 18:36:16;;;;;;;3.73;2.90;;;;;30.60;98970.00;;;;16662476;28;20302;-48
2022/08/24 18:44:22;;;;;;;2.63;2.43;;;;;27.70;98984.00;;;;16661598;28;20222;-49
2022/08/24 18:52:25;;;;;;;2.93;2.70;;;;;26.80;98992.00;;;;16661727;28;20661;-49
2022/08/24 19:00:29;;;;;;;2.93;2.43;;;;;26.10;98995.00;;;;16661060;28;20221;-52
2022/08/24 19:08:31;;;;;;;2.80;2.50;;;;;26.10;99000.00;;;;16661380;28;20261;-52
2022/08/24 19:16:35;;;;;;;3.90;2.47;;;;;25.80;99012.00;;;;16659289;28;20230;-52
2022/08/24 19:24:38;;;;;;;3.30;3.00;;;;;25.70;99010.00;;;;16659770;28;20219;-50
2022/08/24 19:32:42;;;;;;;3.50;2.40;;;;;25.20;99014.00;;;;16658676;28;20222;-52
2022/08/24 19:40:45;;;;;;;2.80;2.50;;;;;25.00;99018.00;;;;16658240;28;20313;-49
2022/08/24 19:48:49;;;;;;;3.00;2.80;;;;;24.80;99006.00;;;;16657576;28;20631;-52
2022/08/24 19:56:53;;;;;;;3.90;3.00;;;;;24.50;99013.00;;;;16658069;28;20222;-49
2022/08/24 20:04:58;;;;;;;4.80;3.53;;;;;24.50;99023.00;;;;16656525;28;20218;-52
2022/08/24 20:13:00;;;;;;;3.83;2.80;;;;;24.10;99026.00;;;;16656687;28;20215;-50
2022/08/24 20:21:05;;;;;;;3.80;3.47;;;;;23.90;99020.00;;;;16656040;28;20242;-49
2022/08/24 20:29:07;;;;;;;3.77;3.47;;;;;23.60;99019.00;;;;16655222;28;20227;-49
2022/08/24 20:37:11;;;;;;;5.00;3.53;;;;;23.70;99021.00;;;;16655073;28;20226;-49
2022/08/24 20:45:15;;;;;;;4.00;3.37;;;;;23.60;99022.00;;;;16654460;28;20578;-49
2022/08/24 20:53:19;;;;;;;4.93;3.77;;;;;23.70;99022.00;;;;16653792;28;20222;-49
2022/08/24 21:01:21;;;;;;;5.67;3.70;;;;;23.50;99014.00;;;;16653057;28;20226;-50
2022/08/24 21:09:25;;;;;;;3.40;3.13;;;;;23.40;99013.00;;;;16653181;28;20254;-50
2022/08/24 21:17:28;;;;;;;4.27;3.80;;;;;22.90;99010.00;;;;16652585;28;20226;-50
2022/08/24 21:25:32;;;;;;;3.90;3.60;;;;;23.10;99018.00;;;;16653059;28;20218;-49
2022/08/24 21:41:56;;;;;;;6.90;3.63;;;;;23.00;99021.00;;;;16661674;28;20236;-49
2022/08/24 21:49:58;;;;;;;4.00;3.60;;;;;23.20;99019.00;;;;16687623;22;20754;-50
2022/08/24 21:58:02;;;;;;;3.53;3.23;;;;;22.20;99018.00;;;;16630067;28;20582;-49
2022/08/24 22:06:05;;;;;;;4.13;3.83;;;;;22.20;99009.00;;;;16592286;28;20222;-50
2022/08/24 22:14:09;;;;;;;3.43;3.23;;;;;22.10;99015.00;;;;16591890;28;20327;-49
2022/08/24 22:22:11;;;;;;;4.43;4.10;;;;;22.00;99006.00;;;;16653981;28;20257;-49
2022/08/24 22:30:17;;;;;;;3.73;3.43;;;;;22.40;99003.00;;;;16661231;28;20229;-49
2022/08/24 22:38:20;;;;;;;3.60;3.30;;;;;22.10;99002.00;;;;16601483;28;20698;-48
2022/08/24 22:46:25;;;;;;;4.20;3.90;;;;;22.00;99001.00;;;;16594784;28;20217;-49
2022/08/24 22:54:28;;;;;;;4.10;3.80;;;;;21.90;98992.00;;;;16592225;28;20222;-48
2022/08/24 23:02:32;;;;;;;4.13;3.83;;;;;21.70;98991.00;;;;16593882;28;20278;-49
2022/08/24 23:10:34;;;;;;;3.80;3.50;;;;;21.90;98986.00;;;;16585876;28;20305;-49
2022/08/24 23:26:59;;;;;;;12.60;4.03;;;;;21.40;98975.00;;;;16593048;28;20522;-48
2022/08/24 23:35:03;;;;;;;4.00;3.70;;;;;21.30;98983.00;;;;16592083;28;20223;-48
2022/08/24 23:43:05;;;;;;;4.23;3.93;;;;;21.20;98976.00;;;;16591573;28;20682;-49
2022/08/24 23:51:11;;;;;;;4.57;4.27;;;;;21.40;98969.00;;;;16588450;28;20833;-48
2022/08/24 23:59:16;;;;;;;3.97;3.63;;;;;21.10;98959.00;;;;16589424;28;20318;-49
